createdAt,value
2023-06-13T00:01:07.260Z,16.01
2023-06-13T00:06:03.942Z,15.78
2023-06-13T00:11:00.680Z,15.74
2023-06-13T00:16:00.112Z,15.81
2023-06-13T00:20:56.903Z,15.82
2023-06-13T00:25:54.474Z,15.75
2023-06-13T00:30:52.296Z,15.91
2023-06-13T00:35:48.823Z,15.88
2023-06-13T00:40:46.094Z,15.84
2023-06-13T00:45:42.660Z,15.85
2023-06-13T00:50:45.937Z,15.74
2023-06-13T00:55:43.469Z,15.64
2023-06-13T01:00:40.838Z,15.56
2023-06-13T01:05:40.285Z,15.39
2023-06-13T01:10:41.341Z,15.26
2023-06-13T01:15:46.269Z,15.14
2023-06-13T01:20:45.965Z,14.98
2023-06-13T01:25:58.491Z,14.83
2023-06-13T01:30:56.903Z,14.74
2023-06-13T01:35:54.279Z,14.70
2023-06-13T01:40:50.806Z,14.65
2023-06-13T01:45:47.690Z,14.91
2023-06-13T01:50:50.265Z,15.09
2023-06-13T01:55:53.900Z,15.03
2023-06-13T02:00:52.394Z,15.06
2023-06-13T02:05:49.296Z,14.97
2023-06-13T02:10:46.383Z,14.97
2023-06-13T02:15:42.818Z,14.74
2023-06-13T02:20:39.238Z,14.52
2023-06-13T02:25:36.605Z,14.46
2023-06-13T02:30:33.195Z,14.34
2023-06-13T02:35:49.861Z,14.23
2023-06-13T02:40:46.371Z,14.20
2023-06-13T02:45:42.807Z,14.23
2023-06-13T02:50:39.287Z,14.20
2023-06-13T02:55:35.758Z,14.16
2023-06-13T03:00:32.553Z,14.13
2023-06-13T03:05:28.991Z,14.05
2023-06-13T03:10:25.997Z,14.03
2023-06-13T03:15:22.977Z,14.09
2023-06-13T03:20:27.723Z,14.08
2023-06-13T03:25:25.933Z,14.08
2023-06-13T03:30:22.523Z,14.09
2023-06-13T03:35:19.004Z,14.26
2023-06-13T03:40:16.159Z,14.32
2023-06-13T03:45:16.676Z,14.29
2023-06-13T03:50:13.564Z,14.40
2023-06-13T03:55:11.250Z,14.36
2023-06-13T04:00:09.696Z,14.43
2023-06-13T04:05:08.041Z,14.54
2023-06-13T04:10:05.049Z,14.70
2023-06-13T04:15:01.537Z,14.76
2023-06-13T04:19:58.026Z,14.90
2023-06-13T04:24:55.153Z,14.99
2023-06-13T04:29:54.202Z,15.08
2023-06-13T04:34:55.065Z,15.09
2023-06-13T04:39:52.657Z,15.34
2023-06-13T04:44:49.327Z,15.44
2023-06-13T04:49:46.240Z,15.51
2023-06-13T04:54:42.832Z,15.72
2023-06-13T04:59:40.252Z,15.90
2023-06-13T05:04:38.206Z,16.09
2023-06-13T05:09:34.772Z,16.16
2023-06-13T05:14:31.406Z,16.36
2023-06-13T05:19:28.751Z,16.52
2023-06-13T05:24:25.265Z,16.68
2023-06-13T05:29:21.749Z,16.92
2023-06-13T05:34:18.587Z,17.26
2023-06-13T05:39:15.054Z,17.74
2023-06-13T05:44:14.210Z,18.15
2023-06-13T05:49:10.700Z,18.52
2023-06-13T05:54:07.251Z,18.97
2023-06-13T05:59:03.780Z,19.47
2023-06-13T06:04:00.452Z,19.56
2023-06-13T06:08:57.070Z,19.61
2023-06-13T06:13:53.510Z,19.68
2023-06-13T06:18:51.602Z,19.63
2023-06-13T06:23:48.815Z,20.24
2023-06-13T06:28:45.379Z,20.98
2023-06-13T06:33:41.842Z,21.63
2023-06-13T06:38:38.310Z,22.02
2023-06-13T06:43:34.889Z,22.32
2023-06-13T06:48:31.340Z,22.77
2023-06-13T06:53:29.695Z,23.08
2023-06-13T06:58:26.178Z,23.34
2023-06-13T07:03:22.662Z,23.48
2023-06-13T07:08:19.277Z,23.25
2023-06-13T07:13:15.777Z,23.58
2023-06-13T07:18:12.288Z,24.00
2023-06-13T07:23:08.784Z,24.49
2023-06-13T07:28:05.192Z,24.61
2023-06-13T07:33:01.827Z,24.66
2023-06-13T07:37:58.801Z,24.45
2023-06-13T07:42:56.018Z,24.59
2023-06-13T07:47:52.956Z,24.52
2023-06-13T07:52:49.545Z,24.75
2023-06-13T07:57:59.065Z,24.26
2023-06-13T08:02:59.344Z,24.74
2023-06-13T08:07:57.016Z,24.71
2023-06-13T08:12:53.588Z,24.55
2023-06-13T08:17:50.154Z,24.78
2023-06-13T08:22:46.731Z,24.91
2023-06-13T08:27:45.465Z,24.97
2023-06-13T08:32:42.724Z,24.40
2023-06-13T08:37:39.941Z,25.06
2023-06-13T08:42:37.562Z,25.19
2023-06-13T08:47:37.709Z,24.86
2023-06-13T08:52:42.523Z,25.36
2023-06-13T08:57:40.816Z,25.34
2023-06-13T09:02:37.729Z,25.44
2023-06-13T09:07:34.953Z,25.57
2023-06-13T09:12:31.894Z,25.48
2023-06-13T09:17:28.919Z,25.75
2023-06-13T09:22:26.002Z,25.52
2023-06-13T09:27:22.645Z,25.49
2023-06-13T09:32:24.330Z,25.22
2023-06-13T09:37:21.448Z,25.71
2023-06-13T09:42:24.288Z,25.80
2023-06-13T09:47:23.727Z,26.25
2023-06-13T09:52:26.702Z,25.81
2023-06-13T09:57:29.574Z,26.21
2023-06-13T10:02:35.023Z,26.34
2023-06-13T10:07:31.908Z,26.24
2023-06-13T10:12:29.049Z,26.37
2023-06-13T10:17:29.962Z,26.70
2023-06-13T10:22:26.598Z,26.14
2023-06-13T10:27:25.294Z,26.49
2023-06-13T10:32:21.699Z,26.02
2023-06-13T10:37:43.225Z,25.81
2023-06-13T10:43:08.966Z,26.57
2023-06-13T10:48:07.419Z,27.09
2023-06-13T10:53:03.909Z,26.71
2023-06-13T10:58:02.399Z,26.46
2023-06-13T11:03:06.305Z,27.08
2023-06-13T11:08:06.121Z,27.14
2023-06-13T11:13:05.478Z,26.80
2023-06-13T11:18:22.030Z,26.89
2023-06-13T11:23:19.543Z,27.32
2023-06-13T11:28:16.349Z,26.15
2023-06-13T11:33:13.467Z,26.49
2023-06-13T11:38:19.362Z,26.40
2023-06-13T11:43:15.946Z,26.21
2023-06-13T11:48:18.700Z,26.57
2023-06-13T11:53:15.210Z,26.53
2023-06-13T11:58:11.831Z,26.52
2023-06-13T12:03:08.443Z,27.10
2023-06-13T12:08:05.490Z,26.68
2023-06-13T12:13:01.924Z,25.68
2023-06-13T12:18:03.656Z,26.54
2023-06-13T12:23:01.542Z,27.30
2023-06-13T12:28:02.393Z,27.54
2023-06-13T12:32:59.120Z,27.79
2023-06-13T12:37:56.172Z,26.93
2023-06-13T12:42:53.593Z,26.14
2023-06-13T12:47:54.270Z,26.52
2023-06-13T12:52:51.477Z,25.82
2023-06-13T12:57:47.988Z,25.78
2023-06-13T13:02:44.546Z,24.60
2023-06-13T13:07:41.003Z,25.08
2023-06-13T13:12:37.427Z,25.81
2023-06-13T13:17:34.189Z,26.81
2023-06-13T13:22:30.679Z,27.14
2023-06-13T13:27:27.246Z,27.79
2023-06-13T13:32:24.659Z,27.92
2023-06-13T13:37:21.356Z,26.44
2023-06-13T13:42:26.104Z,26.69
2023-06-13T13:47:23.645Z,26.85
2023-06-13T13:52:20.472Z,27.47
2023-06-13T13:57:17.097Z,27.12
2023-06-13T14:02:13.795Z,27.40
2023-06-13T14:07:10.204Z,27.12
2023-06-13T14:12:07.382Z,27.35
2023-06-13T14:17:03.941Z,27.86
2023-06-13T14:22:00.518Z,28.18
2023-06-13T14:26:57.604Z,28.60
2023-06-13T14:31:54.132Z,28.20
2023-06-13T14:36:54.475Z,27.85
2023-06-13T14:41:51.599Z,27.77
2023-06-13T14:46:48.163Z,27.89
2023-06-13T14:51:44.655Z,27.54
2023-06-13T14:56:41.140Z,27.28
2023-06-13T15:01:38.289Z,27.63
2023-06-13T15:06:34.773Z,27.03
2023-06-13T15:11:31.297Z,27.45
2023-06-13T15:16:27.918Z,26.80
2023-06-13T15:21:24.528Z,27.34
2023-06-13T15:26:22.348Z,28.09
2023-06-13T15:31:19.055Z,27.89
2023-06-13T15:36:15.592Z,27.11
2023-06-13T15:41:12.129Z,26.95
2023-06-13T15:46:08.542Z,27.58
2023-06-13T15:51:04.935Z,28.06
2023-06-13T15:56:04.529Z,27.23
2023-06-13T16:01:01.297Z,27.73
2023-06-13T16:05:58.084Z,28.32
2023-06-13T16:10:54.502Z,27.46
2023-06-13T16:15:51.561Z,28.57
2023-06-13T16:20:48.148Z,29.06
2023-06-13T16:25:45.136Z,29.57
2023-06-13T16:30:42.845Z,29.57
2023-06-13T16:35:39.460Z,29.93
2023-06-13T16:40:35.890Z,29.73
2023-06-13T16:45:32.825Z,29.06
2023-06-13T16:50:29.579Z,30.38
2023-06-13T16:55:26.810Z,31.43
2023-06-13T17:00:23.296Z,32.24
2023-06-13T17:05:19.934Z,33.89
2023-06-13T17:10:18.377Z,35.75
2023-06-13T17:15:15.493Z,36.94
2023-06-13T17:20:12.307Z,37.58
2023-06-13T17:25:08.927Z,36.84
2023-06-13T17:30:06.094Z,36.99
2023-06-13T17:35:03.250Z,35.84
2023-06-13T17:39:59.776Z,36.88
2023-06-13T17:44:56.370Z,37.58
2023-06-13T17:49:52.876Z,35.57
2023-06-13T17:54:49.354Z,35.03
2023-06-13T17:59:46.371Z,34.38
2023-06-13T18:04:43.032Z,32.67
2023-06-13T18:09:39.531Z,31.78
2023-06-13T18:14:35.885Z,32.18
2023-06-13T18:19:32.525Z,33.69
2023-06-13T18:24:29.061Z,34.58
2023-06-13T18:29:25.623Z,34.43
2023-06-13T18:34:22.054Z,34.88
2023-06-13T18:39:18.610Z,33.97
2023-06-13T18:44:15.109Z,33.48
2023-06-13T18:49:11.639Z,33.19
2023-06-13T18:54:08.127Z,32.71
2023-06-13T18:59:04.554Z,31.73
2023-06-13T19:04:01.224Z,30.69
2023-06-13T19:08:58.354Z,30.07
2023-06-13T19:13:54.964Z,29.50
2023-06-13T19:18:51.779Z,28.18
2023-06-13T19:23:48.486Z,26.23
2023-06-13T19:28:44.857Z,24.56
2023-06-13T19:33:42.952Z,23.60
2023-06-13T19:38:39.421Z,22.93
2023-06-13T19:43:36.256Z,22.36
2023-06-13T19:48:34.186Z,21.98
2023-06-13T19:53:32.573Z,21.57
2023-06-13T19:58:31.336Z,20.91
2023-06-13T20:03:27.812Z,20.44
2023-06-13T20:08:24.250Z,20.09
2023-06-13T20:13:21.167Z,19.86
2023-06-13T20:18:17.609Z,19.84
2023-06-13T20:23:14.211Z,19.82
2023-06-13T20:28:10.887Z,19.65
2023-06-13T20:33:07.389Z,19.94
2023-06-13T20:38:04.553Z,20.36
2023-06-13T20:43:01.172Z,20.48
2023-06-13T20:47:57.841Z,20.49
2023-06-13T20:52:54.915Z,20.45
2023-06-13T20:57:52.958Z,20.31
2023-06-13T21:02:57.857Z,20.23
2023-06-13T21:07:58.268Z,20.03
2023-06-13T21:12:54.872Z,19.91
2023-06-13T21:17:53.890Z,19.78
2023-06-13T21:22:50.769Z,19.66
2023-06-13T21:27:47.729Z,19.49
2023-06-13T21:32:44.666Z,19.29
2023-06-13T21:37:41.481Z,19.22
2023-06-13T21:42:38.401Z,19.01
2023-06-13T21:47:35.430Z,18.86
2023-06-13T21:52:32.226Z,18.87
2023-06-13T21:57:28.644Z,18.74
2023-06-13T22:02:25.145Z,18.65
2023-06-13T22:07:21.699Z,18.56
2023-06-13T22:12:18.930Z,18.54
2023-06-13T22:17:16.294Z,18.42
2023-06-13T22:22:15.062Z,18.33
2023-06-13T22:27:11.484Z,18.27
2023-06-13T22:32:08.261Z,18.16
2023-06-13T22:37:05.024Z,17.99
2023-06-13T22:42:01.468Z,17.76
2023-06-13T22:46:57.874Z,17.63
2023-06-13T22:51:54.291Z,17.62
2023-06-13T22:56:50.806Z,17.60
2023-06-13T23:01:47.282Z,17.40
2023-06-13T23:06:44.456Z,17.31
2023-06-13T23:11:41.129Z,17.21
2023-06-13T23:16:39.195Z,17.10
2023-06-13T23:21:35.796Z,16.99
2023-06-13T23:26:32.691Z,16.82
2023-06-13T23:31:29.815Z,16.68
2023-06-13T23:36:29.073Z,16.62
2023-06-13T23:41:27.595Z,16.44
2023-06-13T23:46:24.427Z,16.32
2023-06-13T23:51:21.020Z,16.15
2023-06-13T23:56:17.412Z,16.03
